createdAt,value
2024-01-08T00:01:50.315Z,22.58
2024-01-08T00:04:22.893Z,21.00
2024-01-08T00:06:54.512Z,22.15
2024-01-08T00:09:24.814Z,26.08
2024-01-08T00:11:54.552Z,23.90
2024-01-08T00:14:25.040Z,22.52
2024-01-08T00:16:53.379Z,23.75
2024-01-08T00:19:24.516Z,23.45
2024-01-08T00:21:53.046Z,24.37
2024-01-08T00:24:21.617Z,25.08
2024-01-08T00:26:51.764Z,25.70
2024-01-08T00:29:20.726Z,24.13
2024-01-08T00:31:49.295Z,25.05
2024-01-08T00:34:18.367Z,28.95
2024-01-08T00:36:47.908Z,27.33
2024-01-08T00:39:17.456Z,29.85
2024-01-08T00:41:47.048Z,27.27
2024-01-08T00:44:18.755Z,30.98
2024-01-08T00:46:47.614Z,30.67
2024-01-08T00:49:16.176Z,32.60
2024-01-08T00:51:45.352Z,31.75
2024-01-08T00:54:14.485Z,30.38
2024-01-08T00:56:45.315Z,32.45
2024-01-08T00:59:16.878Z,31.50
2024-01-08T01:01:45.441Z,31.10
2024-01-08T01:04:14.148Z,30.42
2024-01-08T01:06:43.322Z,23.65
2024-01-08T01:09:11.853Z,24.55
2024-01-08T01:11:40.299Z,23.27
2024-01-08T01:14:08.696Z,23.88
2024-01-08T01:16:38.912Z,28.13
2024-01-08T01:19:08.224Z,26.55
2024-01-08T01:21:37.031Z,27.70
2024-01-08T01:24:07.702Z,26.33
2024-01-08T01:26:38.450Z,30.40
2024-01-08T01:29:08.268Z,32.58
2024-01-08T01:31:39.788Z,33.83
2024-01-08T01:34:11.710Z,37.42
2024-01-08T01:36:41.237Z,35.53
2024-01-08T01:39:11.963Z,35.00
2024-01-08T01:41:41.759Z,34.55
2024-01-08T01:44:11.146Z,32.75
2024-01-08T01:46:45.689Z,33.33
2024-01-08T01:49:20.189Z,26.30
2024-01-08T01:51:51.664Z,27.55
2024-01-08T01:54:26.721Z,29.23
2024-01-08T01:56:59.770Z,27.55
2024-01-08T01:59:30.156Z,31.52
2024-01-08T02:02:01.502Z,29.35
2024-01-08T02:04:32.279Z,29.27
2024-01-08T02:07:03.712Z,30.52
2024-01-08T02:09:32.279Z,31.00
2024-01-08T02:12:01.126Z,33.47
2024-01-08T02:14:30.183Z,31.65
2024-01-08T02:17:00.101Z,32.30
2024-01-08T02:19:28.383Z,31.23
2024-01-08T02:21:57.490Z,31.10
2024-01-08T02:24:29.643Z,32.50
2024-01-08T02:29:31.987Z,30.02
2024-01-08T02:32:01.848Z,32.78
2024-01-08T02:34:30.702Z,30.88
2024-01-08T02:36:59.593Z,32.28
2024-01-08T02:39:30.487Z,33.78
2024-01-08T02:41:59.053Z,31.25
2024-01-08T02:44:27.603Z,30.52
2024-01-08T02:46:56.282Z,31.10
2024-01-08T02:49:25.291Z,31.40
2024-01-08T02:51:53.801Z,31.08
2024-01-08T02:54:23.688Z,32.45
2024-01-08T02:56:55.518Z,29.77
2024-01-08T02:59:24.465Z,33.10
2024-01-08T03:01:54.148Z,30.52
2024-01-08T03:04:22.654Z,31.58
2024-01-08T03:06:51.844Z,28.23
2024-01-08T03:09:20.576Z,30.67
2024-01-08T03:11:50.745Z,29.85
2024-01-08T03:14:23.707Z,31.08
2024-01-08T03:16:52.847Z,28.95
2024-01-08T03:19:23.292Z,29.10
2024-01-08T03:21:51.593Z,30.08
2024-01-08T03:24:20.162Z,30.90
2024-01-08T03:26:49.907Z,29.77
2024-01-08T03:29:18.772Z,28.83
2024-01-08T03:31:49.816Z,28.08
2024-01-08T03:34:18.756Z,33.28
2024-01-08T03:36:48.660Z,31.95
2024-01-08T03:39:17.802Z,29.48
2024-01-08T03:41:46.747Z,31.02
2024-01-08T03:44:16.969Z,29.50
2024-01-08T03:46:46.276Z,29.05
2024-01-08T03:49:17.036Z,29.55
2024-01-08T03:51:45.565Z,30.17
2024-01-08T03:54:15.527Z,29.77
2024-01-08T03:56:45.567Z,28.25
2024-01-08T03:59:15.060Z,31.20
2024-01-08T04:01:47.863Z,30.30
2024-01-08T04:04:19.156Z,30.02
2024-01-08T04:06:49.700Z,28.75
2024-01-08T04:09:19.118Z,27.95
2024-01-08T04:11:48.099Z,29.92
2024-01-08T04:14:18.402Z,24.05
2024-01-08T04:16:46.556Z,28.20
2024-01-08T04:19:15.514Z,28.35
2024-01-08T04:21:47.272Z,27.95
2024-01-08T04:24:16.646Z,29.85
2024-01-08T04:26:46.599Z,28.60
2024-01-08T04:29:14.912Z,28.00
2024-01-08T04:31:45.530Z,27.30
2024-01-08T04:34:14.262Z,29.63
2024-01-08T04:36:46.938Z,28.88
2024-01-08T04:39:17.000Z,28.98
2024-01-08T04:41:45.715Z,29.83
2024-01-08T04:44:16.005Z,27.88
2024-01-08T04:46:44.920Z,27.73
2024-01-08T04:49:15.246Z,29.65
2024-01-08T04:51:43.556Z,28.25
2024-01-08T04:54:13.541Z,30.45
2024-01-08T04:56:44.093Z,27.92
2024-01-08T04:59:13.607Z,27.60
2024-01-08T05:01:42.430Z,29.67
2024-01-08T05:04:13.132Z,30.95
2024-01-08T05:06:44.029Z,27.23
2024-01-08T05:09:13.008Z,32.03
2024-01-08T05:11:47.365Z,27.27
2024-01-08T05:14:16.624Z,30.40
2024-01-08T05:16:46.854Z,29.20
2024-01-08T05:19:15.921Z,28.08
2024-01-08T05:21:44.546Z,30.55
2024-01-08T05:24:14.499Z,29.80
2024-01-08T05:26:45.169Z,28.60
2024-01-08T05:29:14.794Z,30.52
2024-01-08T05:31:44.306Z,29.60
2024-01-08T05:34:12.923Z,28.00
2024-01-08T05:36:43.344Z,30.60
2024-01-08T05:39:12.793Z,28.63
2024-01-08T05:41:42.408Z,30.55
2024-01-08T05:44:14.411Z,30.30
2024-01-08T05:46:45.984Z,28.98
2024-01-08T05:49:15.897Z,30.00
2024-01-08T05:51:44.405Z,29.27
2024-01-08T05:54:14.049Z,28.27
2024-01-08T05:56:42.456Z,29.13
2024-01-08T05:59:13.331Z,26.50
2024-01-08T06:01:43.812Z,32.13
2024-01-08T06:04:12.503Z,28.50
2024-01-08T06:06:40.818Z,28.85
2024-01-08T06:09:10.415Z,27.67
2024-01-08T06:11:40.084Z,30.02
2024-01-08T06:14:08.933Z,30.33
2024-01-08T06:16:39.333Z,29.58
2024-01-08T06:19:09.401Z,27.75
2024-01-08T06:21:38.057Z,27.52
2024-01-08T06:24:07.137Z,29.55
2024-01-08T06:26:39.586Z,27.65
2024-01-08T06:29:08.153Z,26.58
2024-01-08T06:31:37.991Z,27.65
2024-01-08T06:34:07.882Z,28.02
2024-01-08T06:36:36.940Z,27.48
2024-01-08T06:39:05.872Z,29.17
2024-01-08T06:41:34.503Z,29.15
2024-01-08T06:44:05.148Z,27.08
2024-01-08T06:46:33.777Z,27.15
2024-01-08T06:49:06.281Z,28.20
2024-01-08T06:51:44.389Z,29.52
2024-01-08T06:54:12.567Z,35.28
2024-01-08T06:56:42.680Z,27.15
2024-01-08T06:59:12.396Z,28.65
2024-01-08T07:01:42.050Z,27.67
2024-01-08T07:04:11.966Z,27.52
2024-01-08T07:06:41.753Z,27.35
2024-01-08T07:09:10.069Z,27.65
2024-01-08T07:11:38.838Z,27.35
2024-01-08T07:14:08.903Z,28.70
2024-01-08T07:16:37.745Z,28.95
2024-01-08T07:19:06.405Z,27.60
2024-01-08T07:21:36.595Z,28.60
2024-01-08T07:24:05.985Z,28.48
2024-01-08T07:26:34.792Z,29.00
2024-01-08T07:29:04.841Z,28.10
2024-01-08T07:31:33.142Z,29.40
2024-01-08T07:34:01.472Z,26.45
2024-01-08T07:36:31.014Z,27.20
2024-01-08T07:39:01.561Z,28.38
2024-01-08T07:41:31.097Z,28.65
2024-01-08T07:43:59.842Z,27.70
2024-01-08T07:46:28.176Z,27.52
2024-01-08T07:48:57.911Z,28.17
2024-01-08T07:51:28.675Z,28.88
2024-01-08T07:56:28.763Z,27.95
2024-01-08T07:58:58.993Z,27.95
2024-01-08T08:01:27.454Z,26.55
2024-01-08T08:03:57.257Z,29.45
2024-01-08T08:06:27.896Z,26.90
2024-01-08T08:08:56.509Z,27.85
2024-01-08T08:11:25.440Z,29.77
2024-01-08T08:13:55.841Z,29.05
2024-01-08T08:16:25.687Z,28.90
2024-01-08T08:18:54.341Z,28.52
2024-01-08T08:21:22.620Z,26.10
2024-01-08T08:23:52.110Z,26.02
2024-01-08T08:26:22.026Z,29.45
2024-01-08T08:28:52.118Z,33.53
2024-01-08T08:31:22.253Z,38.72
2024-01-08T08:33:54.009Z,45.03
2024-01-08T08:36:23.039Z,46.30
2024-01-08T08:38:55.386Z,39.00
2024-01-08T08:41:24.571Z,40.77
2024-01-08T08:43:55.195Z,38.10
2024-01-08T08:46:25.048Z,35.58
2024-01-08T08:48:55.922Z,40.80
2024-01-08T08:51:24.440Z,42.65
2024-01-08T08:53:56.089Z,45.60
2024-01-08T08:56:25.739Z,41.42
2024-01-08T08:58:55.818Z,45.80
2024-01-08T09:01:26.659Z,46.45
2024-01-08T09:03:56.956Z,41.55
2024-01-08T09:06:25.968Z,37.42
2024-01-08T09:08:55.927Z,38.03
2024-01-08T09:11:25.627Z,42.20
2024-01-08T09:13:55.292Z,35.45
2024-01-08T09:16:24.626Z,39.08
2024-01-08T09:18:56.665Z,37.03
2024-01-08T09:21:25.840Z,36.13
2024-01-08T09:23:55.029Z,36.60
2024-01-08T09:26:23.687Z,42.17
2024-01-08T09:28:51.914Z,34.67
2024-01-08T09:31:21.793Z,34.78
2024-01-08T09:33:50.286Z,34.03
2024-01-08T09:36:19.949Z,28.88
2024-01-08T09:38:48.442Z,23.15
2024-01-08T09:41:23.678Z,19.83
2024-01-08T09:44:00.278Z,19.50
2024-01-08T09:46:30.757Z,18.92
2024-01-08T09:49:00.411Z,21.25
2024-01-08T09:51:31.071Z,21.45
2024-01-08T09:54:01.427Z,20.42
2024-01-08T09:56:31.492Z,18.58
2024-01-08T09:59:00.782Z,19.13
2024-01-08T10:01:29.312Z,19.90
2024-01-08T10:03:59.342Z,18.77
2024-01-08T10:06:29.870Z,21.83
2024-01-08T10:08:59.473Z,19.50
2024-01-08T10:11:31.879Z,17.90
2024-01-08T10:14:01.174Z,20.77
2024-01-08T10:16:44.595Z,19.90
2024-01-08T10:19:19.677Z,18.95
2024-01-08T10:22:08.118Z,18.48
2024-01-08T10:24:37.947Z,19.20
2024-01-08T10:27:07.318Z,19.55
2024-01-08T10:29:36.304Z,20.88
2024-01-08T10:32:06.410Z,18.40
2024-01-08T10:34:37.298Z,20.05
2024-01-08T10:37:07.543Z,16.08
2024-01-08T10:39:47.478Z,18.25
2024-01-08T10:42:22.266Z,18.63
2024-01-08T10:44:50.582Z,16.48
2024-01-08T10:47:28.735Z,16.15
2024-01-08T10:50:04.458Z,15.57
2024-01-08T10:52:38.319Z,16.10
2024-01-08T10:55:12.993Z,15.95
2024-01-08T10:57:50.488Z,24.80
2024-01-08T11:00:20.197Z,17.13
2024-01-08T11:02:48.923Z,15.60
2024-01-08T11:05:18.689Z,15.77
2024-01-08T11:07:52.538Z,18.60
2024-01-08T11:10:25.180Z,15.57
2024-01-08T11:12:54.185Z,16.33
2024-01-08T11:15:25.604Z,13.27
2024-01-08T11:17:55.695Z,14.15
2024-01-08T11:20:43.871Z,14.20
2024-01-08T11:23:39.435Z,15.55
2024-01-08T11:26:16.015Z,17.83
2024-01-08T11:28:44.556Z,18.92
2024-01-08T11:31:52.299Z,20.52
2024-01-08T11:34:58.968Z,18.02
2024-01-08T11:37:35.396Z,18.35
2024-01-08T11:40:12.299Z,20.90
2024-01-08T11:42:41.948Z,20.95
2024-01-08T11:45:10.924Z,17.85
2024-01-08T11:47:41.109Z,19.73
2024-01-08T11:50:11.669Z,17.90
2024-01-08T11:52:41.935Z,17.45
2024-01-08T11:55:12.165Z,19.27
2024-01-08T11:57:42.376Z,19.30
2024-01-08T12:00:15.207Z,18.35
2024-01-08T12:02:44.577Z,20.35
2024-01-08T12:05:15.984Z,19.00
2024-01-08T12:07:44.657Z,20.10
2024-01-08T12:10:14.690Z,17.15
2024-01-08T12:12:43.567Z,17.20
2024-01-08T12:15:14.039Z,16.92
2024-01-08T12:17:43.385Z,17.77
2024-01-08T12:20:13.583Z,18.85
2024-01-08T12:22:42.406Z,18.52
2024-01-08T12:25:16.197Z,18.38
2024-01-08T12:27:46.723Z,19.05
2024-01-08T12:30:16.823Z,20.98
2024-01-08T12:32:45.628Z,18.95
2024-01-08T12:35:16.614Z,19.75
2024-01-08T12:37:47.146Z,19.83
2024-01-08T12:40:16.968Z,18.65
2024-01-08T12:42:46.941Z,18.23
2024-01-08T12:45:17.656Z,19.25
2024-01-08T12:47:47.201Z,19.95
2024-01-08T12:50:16.970Z,20.55
2024-01-08T12:52:47.527Z,18.67
2024-01-08T12:55:20.518Z,20.10
2024-01-08T12:57:49.279Z,19.88
2024-01-08T13:00:19.481Z,18.65
2024-01-08T13:02:53.701Z,20.13
2024-01-08T13:05:23.719Z,17.75
2024-01-08T13:07:54.181Z,18.85
2024-01-08T13:10:25.417Z,18.27
2024-01-08T13:12:55.743Z,19.50
2024-01-08T13:15:24.559Z,18.85
2024-01-08T13:17:53.238Z,19.30
2024-01-08T13:20:26.913Z,18.27
2024-01-08T13:22:58.836Z,20.90
2024-01-08T13:25:29.270Z,17.75
2024-01-08T13:27:58.624Z,18.05
2024-01-08T13:30:30.793Z,17.40
2024-01-08T13:32:59.552Z,19.27
2024-01-08T13:35:29.896Z,17.45
2024-01-08T13:38:01.659Z,20.05
2024-01-08T13:40:32.813Z,16.02
2024-01-08T13:43:08.087Z,14.20
2024-01-08T13:45:37.429Z,15.02
2024-01-08T13:48:07.040Z,14.93
2024-01-08T13:50:35.603Z,14.45
2024-01-08T13:53:05.040Z,13.18
2024-01-08T13:55:35.283Z,14.73
2024-01-08T13:58:05.311Z,13.90
2024-01-08T14:00:33.840Z,12.32
2024-01-08T14:03:03.610Z,13.98
2024-01-08T14:05:32.980Z,13.35
2024-01-08T14:08:01.790Z,14.93
2024-01-08T14:10:30.859Z,15.65
2024-01-08T14:13:02.640Z,13.38
2024-01-08T14:15:31.065Z,13.32
2024-01-08T14:18:00.940Z,14.07
2024-01-08T14:20:30.087Z,12.38
2024-01-08T14:22:59.451Z,14.43
2024-01-08T14:25:28.390Z,13.43
2024-01-08T14:27:57.381Z,18.20
2024-01-08T14:30:27.519Z,12.95
2024-01-08T14:32:57.108Z,17.52
2024-01-08T14:35:25.722Z,12.27
2024-01-08T14:37:55.086Z,16.73
2024-01-08T14:40:29.110Z,14.98
2024-01-08T14:43:00.884Z,12.90
2024-01-08T14:45:30.928Z,14.60
2024-01-08T14:47:59.805Z,16.08
2024-01-08T14:50:29.346Z,16.75
2024-01-08T14:52:58.004Z,15.93
2024-01-08T14:55:26.355Z,16.48
2024-01-08T14:57:55.013Z,17.90
2024-01-08T15:00:25.228Z,20.30
2024-01-08T15:02:56.452Z,18.35
2024-01-08T15:05:25.955Z,17.40
2024-01-08T15:07:55.995Z,17.75
2024-01-08T15:10:24.557Z,17.58
2024-01-08T15:12:53.776Z,15.80
2024-01-08T15:15:24.580Z,15.48
2024-01-08T15:17:56.181Z,14.85
2024-01-08T15:20:24.695Z,16.70
2024-01-08T15:22:53.275Z,19.92
2024-01-08T15:25:24.531Z,14.27
2024-01-08T15:27:55.217Z,15.35
2024-01-08T15:30:24.210Z,23.00
2024-01-08T15:32:55.564Z,21.10
2024-01-08T15:35:25.020Z,19.55
2024-01-08T15:37:55.915Z,25.90
2024-01-08T15:40:24.152Z,26.92
2024-01-08T15:42:54.671Z,19.92
2024-01-08T15:45:23.725Z,21.52
2024-01-08T15:47:52.738Z,27.02
2024-01-08T15:50:25.443Z,24.90
2024-01-08T15:52:58.914Z,21.10
2024-01-08T15:55:27.481Z,23.58
2024-01-08T15:57:56.058Z,24.00
2024-01-08T16:00:24.506Z,28.38
2024-01-08T16:02:58.027Z,33.42
2024-01-08T16:05:29.178Z,36.22
2024-01-08T16:07:57.426Z,32.85
2024-01-08T16:10:25.690Z,37.55
2024-01-08T16:12:56.361Z,32.90
2024-01-08T16:15:25.064Z,23.10
2024-01-08T16:17:53.542Z,28.63
2024-01-08T16:20:22.586Z,30.33
2024-01-08T16:22:54.014Z,31.38
2024-01-08T16:25:23.672Z,23.52
2024-01-08T16:27:52.755Z,25.38
2024-01-08T16:30:24.313Z,23.98
2024-01-08T16:32:55.913Z,28.85
2024-01-08T16:35:25.259Z,25.67
2024-01-08T16:37:57.516Z,22.23
2024-01-08T16:40:25.758Z,19.00
2024-01-08T16:42:56.905Z,19.05
2024-01-08T16:45:26.223Z,20.98
2024-01-08T16:47:57.965Z,21.17
2024-01-08T16:50:27.729Z,25.33
2024-01-08T16:52:57.661Z,23.38
2024-01-08T16:55:26.367Z,27.17
2024-01-08T16:57:54.979Z,27.00
2024-01-08T17:00:27.148Z,29.15
2024-01-08T17:02:56.283Z,35.42
2024-01-08T17:05:28.098Z,25.80
2024-01-08T17:07:58.169Z,49.97
2024-01-08T17:10:28.425Z,26.63
2024-01-08T17:12:56.718Z,22.17
2024-01-08T17:15:25.779Z,20.63
2024-01-08T17:17:55.910Z,22.58
2024-01-08T17:20:24.646Z,17.92
2024-01-08T17:22:54.658Z,19.73
2024-01-08T17:25:25.220Z,18.60
2024-01-08T17:27:54.862Z,17.55
2024-01-08T17:30:23.385Z,19.70
2024-01-08T17:32:52.108Z,21.30
2024-01-08T17:35:20.746Z,20.67
2024-01-08T17:37:49.366Z,26.15
2024-01-08T17:40:19.577Z,33.10
2024-01-08T17:42:49.791Z,31.15
2024-01-08T17:45:18.234Z,26.73
2024-01-08T17:47:48.102Z,23.25
2024-01-08T17:50:17.186Z,22.70
2024-01-08T17:52:45.640Z,23.48
2024-01-08T17:55:13.996Z,27.23
2024-01-08T17:57:42.590Z,21.73
2024-01-08T18:00:15.872Z,26.90
2024-01-08T18:02:44.630Z,27.50
2024-01-08T18:05:14.607Z,22.92
2024-01-08T18:07:43.775Z,28.75
2024-01-08T18:10:12.367Z,22.02
2024-01-08T18:12:43.590Z,27.33
2024-01-08T18:15:14.225Z,25.85
2024-01-08T18:17:46.777Z,29.65
2024-01-08T18:20:15.700Z,25.00
2024-01-08T18:22:44.731Z,26.08
2024-01-08T18:25:16.264Z,22.38
2024-01-08T18:27:44.613Z,24.73
2024-01-08T18:30:15.724Z,18.67
2024-01-08T18:32:45.636Z,20.25
2024-01-08T18:35:14.361Z,19.65
2024-01-08T18:37:43.933Z,18.73
2024-01-08T18:40:15.928Z,19.90
2024-01-08T18:42:44.647Z,20.98
2024-01-08T18:45:18.310Z,22.70
2024-01-08T18:47:47.446Z,20.50
2024-01-08T18:50:18.024Z,24.08
2024-01-08T18:52:46.753Z,24.10
2024-01-08T18:55:15.638Z,20.77
2024-01-08T18:57:46.418Z,22.35
2024-01-08T19:00:18.591Z,22.60
2024-01-08T19:05:18.725Z,20.88
2024-01-08T19:07:49.548Z,21.98
2024-01-08T19:10:21.198Z,21.63
2024-01-08T19:12:51.642Z,24.65
2024-01-08T19:15:22.138Z,22.40
2024-01-08T19:17:51.113Z,25.90
2024-01-08T19:20:23.346Z,22.73
2024-01-08T19:22:55.700Z,25.15
2024-01-08T19:25:26.506Z,25.40
2024-01-08T19:27:56.677Z,31.13
2024-01-08T19:30:26.345Z,27.63
2024-01-08T19:32:54.810Z,33.00
2024-01-08T19:35:23.994Z,30.20
2024-01-08T19:37:53.105Z,30.85
2024-01-08T19:40:22.389Z,29.58
2024-01-08T19:42:52.872Z,32.40
2024-01-08T19:45:21.770Z,26.90
2024-01-08T19:47:52.139Z,27.85
2024-01-08T19:50:20.929Z,28.80
2024-01-08T19:52:50.288Z,25.38
2024-01-08T19:55:19.265Z,27.23
2024-01-08T19:57:47.829Z,28.42
2024-01-08T20:00:19.998Z,30.52
2024-01-08T20:02:50.605Z,38.00
2024-01-08T20:07:48.709Z,25.67
2024-01-08T20:10:17.506Z,27.73
2024-01-08T20:12:47.988Z,30.55
2024-01-08T20:15:19.262Z,38.35
2024-01-08T20:17:48.068Z,47.30
2024-01-08T20:20:17.693Z,44.05
2024-01-08T20:22:48.021Z,48.30
2024-01-08T20:25:18.976Z,38.35
2024-01-08T20:27:48.831Z,35.72
2024-01-08T20:30:18.282Z,30.80
2024-01-08T20:32:49.906Z,30.08
2024-01-08T20:35:18.767Z,25.02
2024-01-08T20:37:48.854Z,24.77
2024-01-08T20:40:18.743Z,24.90
2024-01-08T20:42:47.428Z,25.35
2024-01-08T20:45:16.428Z,29.70
2024-01-08T20:47:46.030Z,26.60
2024-01-08T20:50:15.264Z,27.15
2024-01-08T20:52:43.711Z,29.38
2024-01-08T20:55:13.406Z,26.58
2024-01-08T20:57:42.326Z,30.48
2024-01-08T21:00:11.914Z,35.22
2024-01-08T21:02:43.399Z,28.23
2024-01-08T21:07:43.216Z,25.95
2024-01-08T21:10:13.580Z,28.00
2024-01-08T21:12:42.385Z,27.20
2024-01-08T21:15:13.502Z,26.60
2024-01-08T21:17:43.811Z,25.27
2024-01-08T21:20:16.370Z,26.55
2024-01-08T21:22:45.220Z,27.60
2024-01-08T21:25:15.512Z,28.77
2024-01-08T21:27:45.961Z,27.20
2024-01-08T21:30:15.166Z,27.00
2024-01-08T21:32:43.825Z,25.00
2024-01-08T21:35:12.448Z,27.80
2024-01-08T21:37:41.440Z,26.73
2024-01-08T21:40:12.213Z,22.02
2024-01-08T21:42:42.106Z,22.63
2024-01-08T21:45:12.603Z,19.83
2024-01-08T21:47:42.759Z,18.58
2024-01-08T21:50:13.181Z,18.67
2024-01-08T21:52:43.896Z,18.85
2024-01-08T21:55:13.640Z,16.70
2024-01-08T21:57:43.516Z,19.77
2024-01-08T22:00:13.370Z,19.50
2024-01-08T22:02:41.843Z,17.95
2024-01-08T22:05:12.933Z,15.55
2024-01-08T22:07:41.974Z,16.63
2024-01-08T22:10:11.471Z,17.98
2024-01-08T22:12:42.797Z,15.63
2024-01-08T22:15:13.667Z,17.25
2024-01-08T22:17:41.034Z,16.30
2024-01-08T22:20:10.825Z,15.18
2024-01-08T22:22:39.077Z,15.60
2024-01-08T22:25:12.040Z,20.77
2024-01-08T22:27:40.581Z,21.42
2024-01-08T22:30:13.435Z,21.30
2024-01-08T22:32:46.131Z,18.95
2024-01-08T22:35:14.990Z,19.88
2024-01-08T22:37:43.727Z,17.90
2024-01-08T22:40:13.308Z,17.75
2024-01-08T22:42:45.215Z,17.05
2024-01-08T22:45:14.155Z,14.68
2024-01-08T22:47:45.109Z,17.08
2024-01-08T22:50:14.503Z,16.52
2024-01-08T22:52:42.651Z,17.08
2024-01-08T22:55:14.109Z,16.48
2024-01-08T22:57:45.900Z,17.25
2024-01-08T23:02:45.315Z,16.27
2024-01-08T23:05:16.693Z,17.67
2024-01-08T23:07:45.990Z,16.25
2024-01-08T23:10:15.171Z,17.33
2024-01-08T23:12:46.932Z,15.68
2024-01-08T23:15:21.308Z,15.48
2024-01-08T23:17:54.830Z,15.93
2024-01-08T23:20:24.490Z,15.38
2024-01-08T23:22:53.695Z,18.13
2024-01-08T23:25:24.457Z,14.80
2024-01-08T23:27:54.368Z,15.07
2024-01-08T23:30:23.159Z,15.07
2024-01-08T23:32:56.922Z,14.55
2024-01-08T23:35:25.742Z,14.52
2024-01-08T23:37:56.734Z,15.55
2024-01-08T23:40:25.461Z,14.23
2024-01-08T23:42:54.851Z,13.77
2024-01-08T23:45:25.941Z,14.00
2024-01-08T23:47:55.717Z,13.68
2024-01-08T23:50:24.568Z,13.90
2024-01-08T23:52:54.064Z,13.43
2024-01-08T23:55:22.301Z,14.13
2024-01-08T23:57:50.806Z,15.98
